Time;durP1;ratioP1;P1;durP2;ratioP2;P2;SDS_P1;SDS_P2;PMS_P1;PMS_P2;Temp;Humidity;BMP_temperature;BMP_pressure;BME280_temperature;BME280_humidity;BME280_pressure;Samples;Min_cycle;Max_cycle;Signal;HPM_P1;HPM_P2
2022/11/25 00:01:08;;;;;;;22.33;6.43;;;;;;;;;;5092922;28;20020;-72
2022/11/25 00:03:34;;;;;;;70.47;22.13;;;;;;;;;;5092360;28;20203;-71
2022/11/25 00:06:10;;;;;;;43.05;13.57;;;;;;;;;;5092673;28;20028;-72
2022/11/25 00:08:37;;;;;;;31.90;11.90;;;;;;;;;;5092586;28;20020;-71
2022/11/25 00:11:03;;;;;;;25.63;10.38;;;;;;;;;;5092776;28;20020;-72
2022/11/25 00:13:30;;;;;;;37.58;11.50;;;;;;;;;;5092379;28;20518;-72
2022/11/25 00:15:56;;;;;;;19.77;7.75;;;;;;;;;;5092268;28;20028;-72
2022/11/25 00:18:22;;;;;;;21.15;7.03;;;;;;;;;;5092363;28;20102;-71
2022/11/25 00:20:49;;;;;;;18.13;7.72;;;;;;;;;;5092713;28;20026;-72
2022/11/25 00:23:15;;;;;;;55.38;13.93;;;;;;;;;;5092403;28;20032;-71
2022/11/25 00:25:41;;;;;;;90.40;21.70;;;;;;;;;;5092716;28;20028;-72
2022/11/25 00:28:08;;;;;;;71.43;17.58;;;;;;;;;;5092538;28;20016;-71
2022/11/25 00:30:34;;;;;;;46.40;11.45;;;;;;;;;;5092367;28;20024;-72
2022/11/25 00:33:00;;;;;;;26.70;7.95;;;;;;;;;;5092305;28;20024;-72
2022/11/25 00:35:26;;;;;;;19.88;7.57;;;;;;;;;;5092213;28;20481;-71
2022/11/25 00:37:53;;;;;;;22.33;8.43;;;;;;;;;;5092261;28;21993;-72
2022/11/25 00:40:19;;;;;;;21.27;7.72;;;;;;;;;;5092363;28;20058;-72
2022/11/25 00:45:30;;;;;;;23.52;7.80;;;;;;;;;;5092348;28;20489;-71
2022/11/25 00:47:57;;;;;;;24.38;8.73;;;;;;;;;;5091957;28;20032;-72
2022/11/25 00:50:23;;;;;;;24.10;8.82;;;;;;;;;;5092379;28;20024;-71
2022/11/25 00:52:49;;;;;;;27.30;9.52;;;;;;;;;;5092018;28;20427;-72
2022/11/25 00:55:16;;;;;;;21.33;7.10;;;;;;;;;;5091988;28;20485;-71
2022/11/25 00:57:42;;;;;;;23.50;7.15;;;;;;;;;;5092066;28;20394;-72
2022/11/25 01:00:10;;;;;;;15.63;6.72;;;;;;;;;;5092398;28;20084;-71
2022/11/25 01:02:36;;;;;;;16.00;5.65;;;;;;;;;;5091757;28;20489;-72
2022/11/25 01:05:02;;;;;;;40.88;15.93;;;;;;;;;;5091892;28;20089;-72
2022/11/25 01:07:29;;;;;;;25.50;11.23;;;;;;;;;;5092311;28;20637;-72
2022/11/25 01:09:55;;;;;;;20.67;7.93;;;;;;;;;;5091885;28;20462;-72
2022/11/25 01:12:22;;;;;;;21.20;7.05;;;;;;;;;;5092037;28;20036;-71
2022/11/25 01:14:48;;;;;;;24.52;9.27;;;;;;;;;;5091932;28;20016;-72
2022/11/25 01:17:14;;;;;;;23.52;7.38;;;;;;;;;;5093093;28;20038;-72
2022/11/25 01:19:41;;;;;;;15.80;6.40;;;;;;;;;;5095977;28;20016;-71
2022/11/25 01:22:07;;;;;;;19.85;8.05;;;;;;;;;;5095849;28;20027;-72
2022/11/25 01:24:34;;;;;;;17.52;8.20;;;;;;;;;;5095793;28;20036;-72
2022/11/25 01:27:00;;;;;;;23.33;6.32;;;;;;;;;;5095713;28;20506;-72
2022/11/25 01:29:27;;;;;;;15.93;5.68;;;;;;;;;;5095724;28;20385;-71
2022/11/25 01:31:56;;;;;;;19.88;6.57;;;;;;;;;;5095192;28;20024;-71
2022/11/25 01:34:24;;;;;;;19.13;8.45;;;;;;;;;;5095526;28;20502;-72
2022/11/25 01:36:50;;;;;;;37.53;14.82;;;;;;;;;;5095670;28;20020;-72
2022/11/25 01:39:18;;;;;;;32.75;13.90;;;;;;;;;;5077285;28;20097;-71
2022/11/25 01:41:44;;;;;;;26.85;11.95;;;;;;;;;;5080760;28;20025;-72
2022/11/25 01:44:11;;;;;;;18.27;6.97;;;;;;;;;;5074959;28;20029;-72
2022/11/25 01:46:54;;;;;;;23.80;7.45;;;;;;;;;;5056776;28;20152;-72
2022/11/25 01:49:30;;;;;;;20.35;6.97;;;;;;;;;;5074971;28;20412;-72
2022/11/25 01:52:18;;;;;;;20.48;7.00;;;;;;;;;;5075460;28;20016;-71
2022/11/25 01:54:48;;;;;;;16.10;6.60;;;;;;;;;;5074922;28;20397;-72
2022/11/25 01:57:21;;;;;;;18.27;6.68;;;;;;;;;;5075101;28;20027;-71
2022/11/25 01:59:50;;;;;;;19.00;7.18;;;;;;;;;;5074530;28;20031;-72
2022/11/25 02:02:17;;;;;;;21.95;8.30;;;;;;;;;;5074653;28;20089;-72
2022/11/25 02:04:44;;;;;;;22.08;8.95;;;;;;;;;;5074710;28;20515;-71
2022/11/25 02:07:14;;;;;;;23.27;10.10;;;;;;;;;;5074645;28;20065;-71
2022/11/25 02:09:42;;;;;;;30.75;10.88;;;;;;;;;;5074841;28;20020;-71
2022/11/25 02:12:08;;;;;;;28.75;11.02;;;;;;;;;;5074528;28;20032;-71
2022/11/25 02:14:35;;;;;;;31.02;11.65;;;;;;;;;;5056862;28;20027;-72
2022/11/25 02:17:01;;;;;;;26.15;11.32;;;;;;;;;;5074655;28;20031;-71
2022/11/25 02:19:56;;;;;;;29.23;11.65;;;;;;;;;;5074521;28;20035;-71
2022/11/25 02:22:26;;;;;;;45.28;17.50;;;;;;;;;;5083710;28;20032;-72
2022/11/25 02:24:56;;;;;;;39.60;15.60;;;;;;;;;;5076476;28;20046;-72
2022/11/25 02:27:22;;;;;;;33.42;12.60;;;;;;;;;;5094470;28;20031;-72
2022/11/25 02:29:49;;;;;;;31.48;10.35;;;;;;;;;;5094314;28;20028;-72
2022/11/25 02:32:20;;;;;;;24.50;7.65;;;;;;;;;;5094458;28;20431;-72
2022/11/25 02:34:50;;;;;;;24.80;8.00;;;;;;;;;;5094469;28;20507;-72
2022/11/25 02:37:17;;;;;;;29.92;8.70;;;;;;;;;;5094242;28;20034;-72
2022/11/25 02:39:44;;;;;;;34.13;11.27;;;;;;;;;;5094561;28;20382;-71
2022/11/25 02:42:10;;;;;;;35.83;11.55;;;;;;;;;;5075894;28;20028;-72
2022/11/25 02:44:37;;;;;;;24.48;7.45;;;;;;;;;;5072314;28;20416;-71
2022/11/25 02:47:03;;;;;;;23.58;5.78;;;;;;;;;;5074337;28;20074;-72
2022/11/25 02:49:29;;;;;;;16.02;4.50;;;;;;;;;;5073783;28;20035;-71
2022/11/25 02:51:56;;;;;;;10.95;4.47;;;;;;;;;;5073950;28;20033;-72
2022/11/25 02:54:22;;;;;;;23.52;4.90;;;;;;;;;;5073729;28;20028;-72
2022/11/25 02:56:49;;;;;;;17.02;4.40;;;;;;;;;;5073897;28;20089;-72
2022/11/25 02:59:15;;;;;;;17.75;6.93;;;;;;;;;;5073270;28;20431;-72
2022/11/25 03:01:41;;;;;;;21.77;6.22;;;;;;;;;;5073538;28;20478;-72
2022/11/25 03:04:07;;;;;;;20.33;6.18;;;;;;;;;;5073533;28;20035;-72
2022/11/25 03:06:34;;;;;;;17.98;5.82;;;;;;;;;;5073460;28;20035;-71
2022/11/25 03:09:00;;;;;;;19.00;6.78;;;;;;;;;;5073865;28;20043;-72
2022/11/25 03:14:11;;;;;;;15.65;5.25;;;;;;;;;;5073673;28;20055;-72
2022/11/25 03:16:38;;;;;;;14.88;6.07;;;;;;;;;;5073011;28;20025;-72
2022/11/25 03:19:04;;;;;;;18.33;5.72;;;;;;;;;;5071983;28;20053;-71
2022/11/25 03:21:31;;;;;;;25.65;6.28;;;;;;;;;;5084130;28;20520;-72
2022/11/25 03:23:57;;;;;;;15.68;5.40;;;;;;;;;;5093290;28;20048;-71
2022/11/25 03:26:24;;;;;;;14.63;4.55;;;;;;;;;;5093062;28;20043;-71
2022/11/25 03:28:51;;;;;;;18.48;5.53;;;;;;;;;;5093588;28;20031;-72
2022/11/25 03:31:17;;;;;;;13.32;4.90;;;;;;;;;;5093150;28;20489;-71
2022/11/25 03:33:43;;;;;;;15.25;4.63;;;;;;;;;;5093519;28;20027;-71
2022/11/25 03:36:10;;;;;;;12.05;4.22;;;;;;;;;;5093067;28;20016;-72
2022/11/25 03:38:36;;;;;;;24.77;7.20;;;;;;;;;;5093105;28;20044;-72
2022/11/25 03:41:02;;;;;;;20.17;7.80;;;;;;;;;;5083433;28;20027;-72
2022/11/25 03:43:29;;;;;;;21.85;8.55;;;;;;;;;;5073076;28;20039;-71
2022/11/25 03:45:55;;;;;;;22.33;8.93;;;;;;;;;;5073061;28;20031;-72
2022/11/25 03:48:21;;;;;;;16.85;7.43;;;;;;;;;;5072790;28;20499;-72
2022/11/25 03:50:48;;;;;;;16.38;6.18;;;;;;;;;;5072978;28;20023;-72
2022/11/25 03:53:14;;;;;;;16.98;5.20;;;;;;;;;;5072555;28;20032;-72
2022/11/25 03:55:41;;;;;;;11.00;3.70;;;;;;;;;;5072249;28;20028;-72
2022/11/25 03:58:07;;;;;;;10.88;3.67;;;;;;;;;;5072748;28;20025;-72
2022/11/25 04:00:34;;;;;;;11.75;3.75;;;;;;;;;;5072633;28;20025;-71
2022/11/25 04:03:01;;;;;;;19.95;6.68;;;;;;;;;;5072444;28;20515;-72
2022/11/25 04:05:27;;;;;;;19.27;7.20;;;;;;;;;;5072425;28;20028;-72
2022/11/25 04:07:53;;;;;;;23.20;6.88;;;;;;;;;;5072671;28;20032;-72
2022/11/25 04:10:20;;;;;;;17.65;4.97;;;;;;;;;;5071139;28;20028;-71
2022/11/25 04:12:46;;;;;;;15.38;4.78;;;;;;;;;;5072413;28;20023;-71
2022/11/25 04:15:13;;;;;;;22.13;5.32;;;;;;;;;;5072631;28;20025;-72
2022/11/25 04:17:40;;;;;;;19.63;7.47;;;;;;;;;;5070895;28;20025;-72
2022/11/25 04:20:06;;;;;;;20.70;6.35;;;;;;;;;;5072784;28;20032;-72
2022/11/25 04:22:33;;;;;;;15.63;6.05;;;;;;;;;;5091591;28;20454;-71
2022/11/25 04:24:59;;;;;;;15.25;6.85;;;;;;;;;;5091951;28;20039;-71
2022/11/25 04:27:25;;;;;;;20.67;5.90;;;;;;;;;;5092863;28;20028;-72
2022/11/25 04:29:52;;;;;;;14.60;5.53;;;;;;;;;;5092528;28;20020;-71
2022/11/25 04:32:18;;;;;;;17.23;5.10;;;;;;;;;;5092742;28;20020;-72
2022/11/25 04:34:44;;;;;;;14.25;4.68;;;;;;;;;;5092532;28;20032;-72
2022/11/25 04:37:11;;;;;;;24.52;5.20;;;;;;;;;;5092220;28;20024;-72
2022/11/25 04:39:37;;;;;;;19.52;7.65;;;;;;;;;;5091806;28;20056;-71
2022/11/25 04:44:48;;;;;;;12.32;5.30;;;;;;;;;;5092337;28;20485;-71
2022/11/25 04:47:14;;;;;;;12.73;5.63;;;;;;;;;;5092163;28;20028;-71
2022/11/25 04:49:41;;;;;;;9.60;3.97;;;;;;;;;;5090930;28;20031;-72
2022/11/25 04:52:07;;;;;;;14.65;4.55;;;;;;;;;;5095240;28;20507;-72
2022/11/25 04:54:33;;;;;;;11.18;4.10;;;;;;;;;;5095977;28;20042;-72
2022/11/25 04:57:00;;;;;;;14.88;4.38;;;;;;;;;;5094891;28;20036;-71
2022/11/25 04:59:38;;;;;;;12.02;4.35;;;;;;;;;;5096411;28;20020;-72
2022/11/25 05:02:05;;;;;;;12.27;4.72;;;;;;;;;;5096220;28;20024;-71
2022/11/25 05:04:31;;;;;;;12.13;4.50;;;;;;;;;;5096131;28;20040;-72
2022/11/25 05:06:58;;;;;;;11.85;3.95;;;;;;;;;;5096159;28;20024;-72
2022/11/25 05:09:24;;;;;;;12.20;4.40;;;;;;;;;;5095946;28;20024;-72
2022/11/25 05:11:51;;;;;;;21.05;6.28;;;;;;;;;;5077732;28;20035;-72
2022/11/25 05:14:17;;;;;;;13.70;6.05;;;;;;;;;;5096241;28;20032;-72
2022/11/25 05:16:43;;;;;;;18.48;6.00;;;;;;;;;;5077939;28;20024;-72
2022/11/25 05:19:10;;;;;;;20.02;9.25;;;;;;;;;;5095880;28;20081;-72
2022/11/25 05:21:36;;;;;;;16.95;7.38;;;;;;;;;;5095787;28;20042;-71
2022/11/25 05:24:02;;;;;;;14.23;5.63;;;;;;;;;;5095626;28;20044;-70
2022/11/25 05:26:29;;;;;;;16.77;6.50;;;;;;;;;;5077781;28;20024;-71
2022/11/25 05:28:55;;;;;;;12.02;6.00;;;;;;;;;;5096090;28;20024;-71
2022/11/25 05:31:22;;;;;;;11.68;4.80;;;;;;;;;;5095530;28;20026;-71
2022/11/25 05:33:48;;;;;;;13.60;4.53;;;;;;;;;;5095421;28;20361;-71
2022/11/25 05:36:14;;;;;;;11.45;4.13;;;;;;;;;;5096060;28;20019;-71
2022/11/25 05:38:41;;;;;;;12.20;4.30;;;;;;;;;;5094666;28;20504;-71
2022/11/25 05:41:09;;;;;;;11.05;4.30;;;;;;;;;;5095114;28;20033;-71
2022/11/25 05:43:36;;;;;;;11.10;4.18;;;;;;;;;;5095558;28;20024;-71
2022/11/25 05:46:06;;;;;;;10.05;4.47;;;;;;;;;;5095541;28;20511;-71
2022/11/25 05:48:33;;;;;;;10.82;4.63;;;;;;;;;;5095243;28;20362;-72
2022/11/25 05:51:03;;;;;;;15.73;4.57;;;;;;;;;;5095441;28;20016;-71
2022/11/25 05:53:29;;;;;;;13.25;4.63;;;;;;;;;;5095059;28;20026;-71
2022/11/25 05:55:56;;;;;;;14.35;4.80;;;;;;;;;;5095084;28;20032;-72
2022/11/25 05:58:23;;;;;;;12.68;4.28;;;;;;;;;;5095315;28;20015;-72
2022/11/25 06:00:50;;;;;;;12.93;4.80;;;;;;;;;;5095072;28;20093;-71
2022/11/25 06:03:16;;;;;;;13.48;4.43;;;;;;;;;;5094217;28;20027;-72
2022/11/25 06:05:43;;;;;;;11.00;4.95;;;;;;;;;;5095313;28;20040;-72
2022/11/25 06:08:09;;;;;;;13.07;5.03;;;;;;;;;;5094847;28;20028;-72
2022/11/25 06:10:39;;;;;;;15.20;5.68;;;;;;;;;;5095050;28;20097;-72
2022/11/25 06:13:06;;;;;;;19.80;6.35;;;;;;;;;;5094810;28;20020;-72
2022/11/25 06:15:32;;;;;;;18.10;7.18;;;;;;;;;;5095010;28;20070;-71
2022/11/25 06:17:59;;;;;;;21.35;7.07;;;;;;;;;;5094606;28;20382;-71
2022/11/25 06:20:26;;;;;;;18.50;6.38;;;;;;;;;;5094195;28;20031;-72
2022/11/25 06:22:53;;;;;;;18.85;6.78;;;;;;;;;;5095172;28;20020;-71
2022/11/25 06:25:19;;;;;;;18.75;6.88;;;;;;;;;;5094597;28;20039;-72
2022/11/25 06:27:45;;;;;;;28.25;8.63;;;;;;;;;;5095042;28;20024;-72
2022/11/25 06:30:13;;;;;;;19.33;7.57;;;;;;;;;;5094884;28;20027;-72
2022/11/25 06:32:39;;;;;;;72.07;18.95;;;;;;;;;;5094684;28;20028;-71
2022/11/25 06:35:05;;;;;;;44.67;10.70;;;;;;;;;;5094091;28;20077;-71
2022/11/25 06:37:32;;;;;;;24.60;8.13;;;;;;;;;;5094472;28;20026;-71
2022/11/25 06:39:59;;;;;;;80.22;22.30;;;;;;;;;;5075861;28;20048;-71
2022/11/25 06:42:25;;;;;;;23.55;7.30;;;;;;;;;;5074292;28;20070;-71
2022/11/25 06:44:51;;;;;;;32.45;9.93;;;;;;;;;;5073870;28;20398;-71
2022/11/25 06:47:17;;;;;;;20.90;6.60;;;;;;;;;;5073998;28;20081;-71
2022/11/25 06:49:44;;;;;;;25.63;7.07;;;;;;;;;;5073459;28;20020;-71
2022/11/25 06:52:10;;;;;;;27.75;10.68;;;;;;;;;;5073750;28;20024;-72
2022/11/25 06:54:40;;;;;;;23.10;9.70;;;;;;;;;;5073771;28;20500;-72
2022/11/25 06:57:07;;;;;;;22.40;8.35;;;;;;;;;;5074078;28;20021;-71
2022/11/25 06:59:33;;;;;;;25.58;10.20;;;;;;;;;;5073567;28;20021;-72
2022/11/25 07:01:59;;;;;;;41.38;17.65;;;;;;;;;;5073479;28;20016;-71
2022/11/25 07:04:26;;;;;;;58.97;27.08;;;;;;;;;;5073316;28;20041;-71
2022/11/25 07:06:52;;;;;;;33.05;14.68;;;;;;;;;;5073928;28;20035;-71
2022/11/25 07:09:18;;;;;;;38.28;15.68;;;;;;;;;;5072676;28;20036;-71
2022/11/25 07:11:45;;;;;;;30.80;11.70;;;;;;;;;;5088537;28;20085;-72
2022/11/25 07:14:13;;;;;;;18.70;7.80;;;;;;;;;;5081510;28;20551;-71
2022/11/25 07:16:40;;;;;;;23.08;9.38;;;;;;;;;;5089188;28;20024;-72
2022/11/25 07:19:06;;;;;;;23.52;10.98;;;;;;;;;;5091403;28;20066;-71
2022/11/25 07:21:35;;;;;;;21.15;8.98;;;;;;;;;;5096972;28;20023;-71
2022/11/25 07:24:03;;;;;;;23.98;9.18;;;;;;;;;;5107060;28;20039;-72
2022/11/25 07:26:30;;;;;;;18.25;8.57;;;;;;;;;;5092726;28;20028;-72
2022/11/25 07:29:01;;;;;;;26.08;9.98;;;;;;;;;;5092253;28;20471;-72
2022/11/25 07:31:29;;;;;;;22.40;11.63;;;;;;;;;;5093109;28;20027;-71
2022/11/25 07:33:56;;;;;;;18.60;10.05;;;;;;;;;;5089296;28;20026;-72
2022/11/25 07:36:23;;;;;;;32.65;13.98;;;;;;;;;;5080915;28;20388;-71
2022/11/25 07:38:49;;;;;;;24.35;9.80;;;;;;;;;;5092256;28;20047;-71
2022/11/25 07:41:17;;;;;;;23.13;9.70;;;;;;;;;;5092322;28;20024;-71
2022/11/25 07:43:44;;;;;;;21.13;7.57;;;;;;;;;;5108208;28;20522;-71
2022/11/25 07:46:12;;;;;;;18.83;7.40;;;;;;;;;;5112261;28;20037;-70
2022/11/25 07:48:39;;;;;;;15.30;6.90;;;;;;;;;;5112147;28;20427;-70
2022/11/25 07:51:06;;;;;;;23.83;7.25;;;;;;;;;;5093043;28;20016;-71
2022/11/25 07:53:32;;;;;;;17.23;6.72;;;;;;;;;;5091990;28;20034;-71
2022/11/25 07:56:01;;;;;;;31.92;16.30;;;;;;;;;;5087058;28;20489;-72
2022/11/25 07:58:28;;;;;;;17.63;7.32;;;;;;;;;;5091330;28;20020;-72
2022/11/25 08:00:54;;;;;;;29.08;9.52;;;;;;;;;;5081463;28;20021;-70
2022/11/25 08:03:20;;;;;;;20.73;8.93;;;;;;;;;;5081637;28;20457;-71
2022/11/25 08:05:47;;;;;;;20.67;8.02;;;;;;;;;;5090271;28;20024;-72
2022/11/25 08:08:13;;;;;;;22.08;8.80;;;;;;;;;;5091965;28;20020;-72
2022/11/25 08:10:40;;;;;;;18.15;8.43;;;;;;;;;;5072568;28;20020;-72
2022/11/25 08:13:06;;;;;;;21.35;9.32;;;;;;;;;;5091179;28;20062;-72
2022/11/25 08:15:33;;;;;;;19.33;8.32;;;;;;;;;;5091939;28;20046;-71
2022/11/25 08:17:59;;;;;;;14.98;6.10;;;;;;;;;;5091104;28;20020;-71
2022/11/25 08:20:25;;;;;;;10.60;4.13;;;;;;;;;;5096970;28;20035;-71
2022/11/25 08:22:53;;;;;;;14.15;3.85;;;;;;;;;;5072398;28;20017;-71
2022/11/25 08:25:19;;;;;;;10.68;3.90;;;;;;;;;;5074750;28;20036;-71
2022/11/25 08:27:47;;;;;;;12.35;4.10;;;;;;;;;;5092374;28;20022;-71
2022/11/25 08:30:13;;;;;;;8.38;3.28;;;;;;;;;;5111378;28;20026;-72
2022/11/25 08:32:39;;;;;;;8.90;3.40;;;;;;;;;;5097321;28;20028;-72
2022/11/25 08:35:06;;;;;;;12.05;4.05;;;;;;;;;;5091393;28;20497;-71
2022/11/25 08:37:32;;;;;;;15.13;4.50;;;;;;;;;;5091571;28;20497;-72
2022/11/25 08:39:59;;;;;;;11.60;4.18;;;;;;;;;;5091034;28;20038;-71
2022/11/25 08:42:25;;;;;;;13.82;4.13;;;;;;;;;;5088224;28;20020;-72
2022/11/25 08:44:52;;;;;;;11.38;4.05;;;;;;;;;;5083921;28;20073;-71
2022/11/25 08:47:19;;;;;;;14.10;5.82;;;;;;;;;;5084676;28;20016;-71
2022/11/25 08:49:45;;;;;;;14.85;5.13;;;;;;;;;;5078230;28;20024;-71
2022/11/25 08:52:12;;;;;;;9.38;4.85;;;;;;;;;;5077701;28;20021;-72
2022/11/25 08:54:38;;;;;;;10.20;5.13;;;;;;;;;;5091926;28;20033;-71
2022/11/25 08:57:04;;;;;;;15.35;6.05;;;;;;;;;;5089162;28;20366;-72
2022/11/25 08:59:31;;;;;;;10.38;5.35;;;;;;;;;;5087535;28;20480;-72
2022/11/25 09:01:57;;;;;;;14.65;5.28;;;;;;;;;;5078374;28;20024;-72
2022/11/25 09:04:23;;;;;;;11.40;4.70;;;;;;;;;;5074261;28;20036;-72
2022/11/25 09:06:50;;;;;;;10.18;4.10;;;;;;;;;;5091320;28;20032;-71
2022/11/25 09:09:16;;;;;;;7.15;3.75;;;;;;;;;;5091490;28;20542;-72
2022/11/25 09:11:42;;;;;;;8.70;3.80;;;;;;;;;;5110693;28;20030;-72
2022/11/25 09:14:09;;;;;;;12.65;3.60;;;;;;;;;;5110128;28;20038;-72
2022/11/25 09:16:35;;;;;;;9.48;3.72;;;;;;;;;;5062825;28;20025;-70
2022/11/25 09:19:01;;;;;;;11.25;3.17;;;;;;;;;;5088716;28;20032;-71
2022/11/25 09:21:28;;;;;;;9.07;2.80;;;;;;;;;;5068047;28;20031;-71
2022/11/25 09:23:54;;;;;;;11.90;4.30;;;;;;;;;;5070368;28;20058;-71
2022/11/25 09:26:25;;;;;;;9.02;3.70;;;;;;;;;;5070274;28;20420;-71
2022/11/25 09:28:52;;;;;;;15.23;3.67;;;;;;;;;;5077174;28;20027;-72
2022/11/25 09:31:19;;;;;;;9.07;3.95;;;;;;;;;;5091006;28;20024;-72
2022/11/25 09:33:45;;;;;;;7.93;3.00;;;;;;;;;;5072785;28;20045;-71
2022/11/25 09:36:15;;;;;;;41.20;25.83;;;;;;;;;;5078618;28;20032;-71
2022/11/25 09:38:45;;;;;;;11.85;3.83;;;;;;;;;;5092875;28;20058;-72
2022/11/25 09:46:40;;;;;;;12.05;4.55;;;;;;;;;;5095701;28;20036;-71
2022/11/25 09:47:07;;;;;;;12.50;4.28;;;;;;;;;;5094667;28;20026;-72
2022/11/25 09:49:55;;;;;;;8.60;3.38;;;;;;;;;;5094690;28;20050;-72
2022/11/25 09:52:36;;;;;;;8.68;2.83;;;;;;;;;;5075776;28;20038;-71
2022/11/25 09:55:06;;;;;;;10.75;3.95;;;;;;;;;;5094504;28;20034;-71
2022/11/25 09:57:51;;;;;;;13.85;4.72;;;;;;;;;;5093074;28;20030;-72
2022/11/25 10:00:18;;;;;;;15.82;6.35;;;;;;;;;;5093432;28;20358;-72
2022/11/25 10:02:45;;;;;;;15.70;6.05;;;;;;;;;;5074343;28;20030;-72
2022/11/25 10:05:27;;;;;;;17.60;4.88;;;;;;;;;;5085355;28;20132;-72
2022/11/25 10:07:55;;;;;;;11.85;3.20;;;;;;;;;;5073602;28;20499;-72
2022/11/25 10:10:36;;;;;;;13.30;3.58;;;;;;;;;;5080532;28;20016;-72
2022/11/25 10:13:05;;;;;;;23.63;9.90;;;;;;;;;;5092286;28;20521;-72
2022/11/25 10:15:31;;;;;;;8.60;3.33;;;;;;;;;;5091883;28;20024;-71
2022/11/25 10:18:02;;;;;;;9.50;2.88;;;;;;;;;;5093504;28;20020;-72
2022/11/25 10:20:30;;;;;;;30.45;10.77;;;;;;;;;;5081184;28;20481;-72
2022/11/25 10:23:19;;;;;;;10.10;4.70;;;;;;;;;;5085010;28;20020;-72
2022/11/25 10:25:47;;;;;;;29.58;13.15;;;;;;;;;;5062189;28;20048;-72
2022/11/25 10:28:16;;;;;;;16.38;6.28;;;;;;;;;;5068884;28;20023;-72
2022/11/25 10:30:58;;;;;;;21.13;8.75;;;;;;;;;;5073183;28;20028;-72
2022/11/25 10:33:27;;;;;;;14.10;5.70;;;;;;;;;;5073043;28;20020;-72
2022/11/25 10:36:05;;;;;;;16.38;4.43;;;;;;;;;;5073331;28;20493;-72
2022/11/25 10:38:31;;;;;;;10.35;3.33;;;;;;;;;;5073181;28;20044;-72
2022/11/25 10:40:58;;;;;;;13.65;3.53;;;;;;;;;;5081374;28;20080;-72
2022/11/25 10:43:24;;;;;;;9.52;3.53;;;;;;;;;;5090319;28;20024;-72
2022/11/25 10:46:00;;;;;;;10.45;3.80;;;;;;;;;;5093117;28;20519;-72
2022/11/25 10:48:29;;;;;;;13.02;4.70;;;;;;;;;;5084294;28;20020;-72
2022/11/25 10:51:12;;;;;;;13.43;4.80;;;;;;;;;;5080949;28;20035;-72
2022/11/25 10:53:39;;;;;;;13.35;4.28;;;;;;;;;;5073393;28;20025;-72
2022/11/25 10:56:10;;;;;;;15.15;4.40;;;;;;;;;;5072745;28;20481;-72
2022/11/25 10:58:37;;;;;;;16.30;8.63;;;;;;;;;;5073046;28;20028;-72
2022/11/25 11:01:04;;;;;;;14.63;5.53;;;;;;;;;;5073029;28;20069;-72
2022/11/25 11:03:30;;;;;;;12.75;5.25;;;;;;;;;;5078879;28;20523;-71
2022/11/25 11:05:57;;;;;;;17.75;6.75;;;;;;;;;;5093509;28;20036;-72
2022/11/25 11:08:23;;;;;;;17.73;6.65;;;;;;;;;;5075403;28;20034;-72
2022/11/25 11:11:08;;;;;;;16.85;6.50;;;;;;;;;;5093212;28;20024;-71
2022/11/25 11:13:35;;;;;;;16.77;4.78;;;;;;;;;;5093595;28;20024;-72
2022/11/25 11:16:01;;;;;;;15.27;5.30;;;;;;;;;;5093581;28;20020;-72
2022/11/25 11:18:29;;;;;;;18.65;4.55;;;;;;;;;;5092159;28;20032;-72
2022/11/25 11:20:57;;;;;;;12.00;4.90;;;;;;;;;;5093040;28;20032;-72
2022/11/25 11:23:23;;;;;;;17.73;5.68;;;;;;;;;;5093606;28;20058;-72
2022/11/25 11:26:16;;;;;;;26.38;10.10;;;;;;;;;;5092579;28;20036;-72
2022/11/25 11:28:42;;;;;;;19.58;6.15;;;;;;;;;;5089723;28;20043;-72
2022/11/25 11:31:11;;;;;;;28.42;9.32;;;;;;;;;;5093130;28;20030;-71
2022/11/25 11:33:47;;;;;;;109.75;52.08;;;;;;;;;;5093535;28;20031;-72
2022/11/25 11:36:32;;;;;;;42.47;18.27;;;;;;;;;;5093211;28;20030;-72
2022/11/25 11:39:11;;;;;;;34.63;16.17;;;;;;;;;;5066661;28;20037;-73
2022/11/25 11:42:00;;;;;;;13.52;6.30;;;;;;;;;;5090869;28;20031;-73
2022/11/25 11:44:45;;;;;;;14.27;5.72;;;;;;;;;;5094547;28;20054;-73
2022/11/25 11:47:34;;;;;;;2.95;1.70;;;;;;;;;;5112350;28;20384;-73
2022/11/25 11:50:22;;;;;;;8.23;4.03;;;;;;;;;;5112411;28;20502;-73
2022/11/25 11:52:51;;;;;;;8.43;4.50;;;;;;;;;;5112414;28;20038;-73
2022/11/25 11:55:36;;;;;;;12.15;5.55;;;;;;;;;;5111655;28;20492;-73
2022/11/25 11:58:02;;;;;;;23.80;10.73;;;;;;;;;;5092258;28;20123;-73
2022/11/25 12:00:32;;;;;;;17.10;8.73;;;;;;;;;;5072992;28;20024;-73
2022/11/25 12:03:01;;;;;;;10.32;6.25;;;;;;;;;;5091754;28;20046;-73
2022/11/25 12:05:29;;;;;;;23.08;14.85;;;;;;;;;;5091693;28;20040;-73
2022/11/25 12:08:14;;;;;;;2.78;1.60;;;;;;;;;;5091524;28;20480;-73
2022/11/25 12:10:53;;;;;;;1.95;1.10;;;;;;;;;;5091598;28;20032;-74
2022/11/25 12:13:22;;;;;;;3.08;1.38;;;;;;;;;;5091237;28;20552;-73
2022/11/25 12:15:56;;;;;;;2.45;1.20;;;;;;;;;;5091621;28;20510;-74
2022/11/25 12:18:29;;;;;;;2.97;1.52;;;;;;;;;;5091162;28;20057;-74
2022/11/25 12:21:00;;;;;;;3.28;1.40;;;;;;;;;;5091323;28;20024;-73
2022/11/25 12:23:26;;;;;;;;;;;;;;;;;;5091321;28;20023;-73
2022/11/25 12:25:56;;;;;;;4.00;1.70;;;;;;;;;;5091272;28;19918;-74
2022/11/25 12:28:37;;;;;;;4.40;1.65;;;;;;;;;;5091413;28;20472;-73
2022/11/25 12:31:10;;;;;;;4.47;1.80;;;;;;;;;;5091539;28;20024;-73
2022/11/25 12:33:39;;;;;;;23.83;13.85;;;;;;;;;;5095872;28;20034;-73
2022/11/25 12:36:10;;;;;;;6.95;3.92;;;;;;;;;;5079012;28;20020;-73
2022/11/25 12:38:45;;;;;;;33.40;22.20;;;;;;;;;;5077554;28;20045;-73
2022/11/25 12:41:14;;;;;;;9.18;5.97;;;;;;;;;;5081671;28;20024;-73
2022/11/25 12:43:40;;;;;;;9.98;5.03;;;;;;;;;;5073866;28;20047;-74
2022/11/25 12:46:13;;;;;;;13.77;10.27;;;;;;;;;;5086867;28;20412;-73
2022/11/25 12:48:41;;;;;;;4.85;3.17;;;;;;;;;;5091349;28;20400;-74
2022/11/25 12:51:10;;;;;;;5.10;3.63;;;;;;;;;;5090588;28;20028;-73
2022/11/25 12:53:41;;;;;;;6.70;4.47;;;;;;;;;;5082866;28;20022;-74
2022/11/25 12:56:14;;;;;;;7.38;3.72;;;;;;;;;;5058467;28;20027;-74
2022/11/25 12:58:45;;;;;;;3.42;2.53;;;;;;;;;;5072496;28;20036;-74
2022/11/25 13:01:14;;;;;;;5.93;1.80;;;;;;;;;;5088116;28;20526;-73
2022/11/25 13:04:00;;;;;;;7.80;4.55;;;;;;;;;;5087086;28;20050;-74
2022/11/25 13:06:54;;;;;;;8.65;7.28;;;;;;;;;;5064218;28;20469;-74
2022/11/25 13:09:34;;;;;;;6.43;4.80;;;;;;;;;;5086133;28;20028;-74
2022/11/25 13:12:03;;;;;;;5.53;3.75;;;;;;;;;;5072615;28;20500;-73
2022/11/25 13:14:39;;;;;;;8.70;5.00;;;;;;;;;;5093537;28;20530;-73
2022/11/25 13:17:09;;;;;;;7.10;4.53;;;;;;;;;;5093497;28;20032;-73
2022/11/25 13:19:36;;;;;;;7.00;3.27;;;;;;;;;;5093443;28;20034;-73
2022/11/25 13:22:05;;;;;;;7.85;4.70;;;;;;;;;;5089269;28;20028;-73
2022/11/25 13:24:38;;;;;;;12.63;8.23;;;;;;;;;;5093504;28;20043;-73
2022/11/25 13:27:05;;;;;;;13.02;7.30;;;;;;;;;;5084148;28;20025;-73
2022/11/25 13:29:31;;;;;;;8.60;5.78;;;;;;;;;;5074002;28;20021;-73
2022/11/25 13:32:01;;;;;;;22.13;12.70;;;;;;;;;;5074980;28;20523;-73
2022/11/25 13:34:29;;;;;;;12.95;7.82;;;;;;;;;;5089191;28;20032;-73
2022/11/25 13:36:56;;;;;;;16.42;9.07;;;;;;;;;;5094097;28;20021;-73
2022/11/25 13:39:22;;;;;;;18.52;9.57;;;;;;;;;;5094263;28;20048;-73
2022/11/25 13:41:58;;;;;;;35.78;17.33;;;;;;;;;;5072557;28;20032;-73
2022/11/25 13:44:27;;;;;;;23.35;14.15;;;;;;;;;;5079498;28;20012;-73
2022/11/25 13:46:57;;;;;;;12.27;7.63;;;;;;;;;;5080474;28;20389;-73
2022/11/25 13:49:26;;;;;;;7.97;3.72;;;;;;;;;;5073799;28;20410;-73
2022/11/25 13:52:15;;;;;;;8.07;3.92;;;;;;;;;;5073628;28;20038;-73
2022/11/25 13:54:49;;;;;;;4.15;2.50;;;;;;;;;;5060084;28;20044;-73
2022/11/25 13:57:23;;;;;;;6.05;2.78;;;;;;;;;;5058519;28;20043;-73
2022/11/25 13:59:51;;;;;;;7.20;4.85;;;;;;;;;;5054527;28;20034;-74
2022/11/25 14:02:44;;;;;;;10.02;5.35;;;;;;;;;;5033911;28;20036;-73
2022/11/25 14:05:29;;;;;;;5.47;2.75;;;;;;;;;;5048118;28;20049;-73
2022/11/25 14:08:13;;;;;;;8.20;4.47;;;;;;;;;;5051104;28;20021;-73
2022/11/25 14:10:49;;;;;;;11.98;6.18;;;;;;;;;;5034467;28;20045;-73
2022/11/25 14:13:30;;;;;;;12.02;6.57;;;;;;;;;;5059067;28;20032;-73
2022/11/25 14:15:56;;;;;;;7.85;4.60;;;;;;;;;;5062945;28;20035;-72
2022/11/25 14:18:23;;;;;;;6.22;3.78;;;;;;;;;;5034521;28;20036;-73
2022/11/25 14:21:03;;;;;;;3.10;2.28;;;;;;;;;;5052527;28;20035;-73
2022/11/25 14:23:38;;;;;;;2.15;1.17;;;;;;;;;;5058863;28;20017;-73
2022/11/25 14:26:09;;;;;;;5.40;3.22;;;;;;;;;;5050624;28;20045;-73
2022/11/25 14:28:41;;;;;;;4.40;3.15;;;;;;;;;;5050428;28;20028;-73
2022/11/25 14:31:10;;;;;;;4.70;3.15;;;;;;;;;;5061396;28;20529;-73
2022/11/25 14:33:41;;;;;;;9.15;5.22;;;;;;;;;;5092839;28;20038;-73
2022/11/25 14:36:10;;;;;;;4.95;3.10;;;;;;;;;;5093053;28;20441;-73
2022/11/25 14:38:40;;;;;;;5.30;2.78;;;;;;;;;;5092826;28;20460;-73
2022/11/25 14:41:10;;;;;;;6.20;3.20;;;;;;;;;;5088353;28;20028;-73
2022/11/25 14:43:39;;;;;;;5.32;2.20;;;;;;;;;;5093110;28;20024;-73
2022/11/25 14:46:14;;;;;;;7.03;2.35;;;;;;;;;;5092975;28;20050;-72
2022/11/25 14:48:41;;;;;;;7.50;2.50;;;;;;;;;;5092683;28;20018;-72
2022/11/25 14:51:09;;;;;;;11.80;1.48;;;;;;;;;;5093104;28;20024;-73
2022/11/25 14:53:46;;;;;;;5.47;1.40;;;;;;;;;;5093355;28;20026;-73